Terminal Aerodrome Forecast
Issued by NWS Rapid City, SD

Home | Current Version | Previous Version | Graphics & Text | Print | Product List | Glossary On
Versions: 1 2 3 4 5 6 7 8 9 10 11 12 13 14 15 16 17
000
FTUS43 KUNR 022300
TAFRAP
TAF
KRAP 022325Z 0300/0324 35011KT P6SM BKN060 OVC100
     FM030300 34018G28KT 2SM -SN BR OVC015
     FM030600 35028G40KT 1/2SM SN BLSN OVC005
     FM031200 33028G40KT 1SM -SN BLSN SCT010 OVC040
     FM031800 33028G40KT P6SM OVC050=

USA.gov is the U.S. government's official web portal to all federal, state and local government web resources and services.